createdAt,value
2018-01-17T00:00:50.799Z,0
2018-01-17T00:02:05.250Z,0
2018-01-17T00:02:50.586Z,0
2018-01-17T00:03:50.364Z,0
2018-01-17T00:04:50.360Z,0
2018-01-17T00:06:05.578Z,0
2018-01-17T00:06:50.927Z,0
2018-01-17T00:08:20.286Z,0
2018-01-17T00:08:50.194Z,0
2018-01-17T00:09:50.952Z,0
2018-01-17T00:11:05.369Z,0
2018-01-17T00:11:50.492Z,0
2018-01-17T00:12:50.741Z,0
2018-01-17T00:14:05.694Z,0
2018-01-17T00:14:50.801Z,0
2018-01-17T00:16:05.448Z,0
2018-01-17T00:17:05.447Z,0
2018-01-17T00:17:50.887Z,0
2018-01-17T00:18:50.803Z,0
2018-01-17T00:19:50.594Z,0
2018-01-17T00:20:50.839Z,0
2018-01-17T00:21:50.606Z,0
2018-01-17T00:23:05.808Z,0
2018-01-17T00:23:50.649Z,0
2018-01-17T00:24:50.910Z,0
2018-01-17T00:25:50.924Z,0
2018-01-17T00:28:50.999Z,0
2018-01-17T00:29:51.302Z,0
2018-01-17T00:30:51.285Z,0
2018-01-17T00:31:51.274Z,0
2018-01-17T00:32:50.532Z,0
2018-01-17T00:33:50.891Z,0
2018-01-17T00:35:51.068Z,0
2018-01-17T00:37:05.489Z,0
2018-01-17T00:38:05.759Z,0
2018-01-17T00:38:51.141Z,0
2018-01-17T00:39:51.138Z,0
2018-01-17T00:41:05.561Z,0
2018-01-17T00:41:50.962Z,0
2018-01-17T00:43:06.084Z,0
2018-01-17T00:43:51.187Z,0
2018-01-17T00:44:51.494Z,0
2018-01-17T00:46:51.210Z,0
2018-01-17T00:47:51.547Z,0
2018-01-17T00:48:51.264Z,0
2018-01-17T00:49:51.310Z,0
2018-01-17T00:50:51.562Z,0
2018-01-17T00:52:51.332Z,0
2018-01-17T00:53:51.060Z,0
2018-01-17T00:54:51.106Z,0
2018-01-17T00:56:06.319Z,0
2018-01-17T00:56:51.686Z,0
2018-01-17T00:57:51.641Z,0
2018-01-17T00:59:06.347Z,0
2018-01-17T01:00:06.102Z,0
2018-01-17T01:00:51.664Z,0
2018-01-17T01:01:51.742Z,0
2018-01-17T01:02:51.487Z,0
2018-01-17T01:03:51.720Z,0
2018-01-17T01:04:50.990Z,0
2018-01-17T01:06:51.868Z,0
2018-01-17T01:07:51.564Z,0
2018-01-17T01:09:06.242Z,0
2018-01-17T01:09:51.068Z,0
2018-01-17T01:10:51.853Z,0
2018-01-17T01:11:51.357Z,0
2018-01-17T01:13:06.312Z,0
2018-01-17T01:14:06.555Z,0
2018-01-17T01:14:51.645Z,0
2018-01-17T01:15:51.410Z,0
2018-01-17T01:16:51.199Z,0
2018-01-17T01:17:51.966Z,0
2018-01-17T01:18:51.450Z,0
2018-01-17T01:19:52.132Z,0
2018-01-17T01:20:51.978Z,0
2018-01-17T01:21:51.976Z,0
2018-01-17T01:22:51.771Z,0
2018-01-17T01:23:51.748Z,0
2018-01-17T01:25:06.747Z,0
2018-01-17T01:25:51.585Z,0
2018-01-17T01:27:51.811Z,0
2018-01-17T01:28:52.102Z,0
2018-01-17T01:29:51.588Z,0
2018-01-17T01:30:51.856Z,0
2018-01-17T01:31:51.866Z,0
2018-01-17T01:32:51.901Z,0
2018-01-17T01:33:51.655Z,0
2018-01-17T01:34:52.182Z,0
2018-01-17T01:35:52.231Z,0
2018-01-17T01:36:51.968Z,0
2018-01-17T01:37:51.966Z,0
2018-01-17T01:38:51.488Z,0
2018-01-17T01:39:51.734Z,0
2018-01-17T01:40:52.016Z,0
2018-01-17T01:41:52.033Z,0
2018-01-17T01:42:52.321Z,0
2018-01-17T01:43:52.052Z,0
2018-01-17T01:44:52.123Z,0
2018-01-17T01:46:06.753Z,0
2018-01-17T01:46:52.384Z,0
2018-01-17T01:47:51.630Z,0
2018-01-17T01:48:52.359Z,0
2018-01-17T01:49:52.156Z,0
2018-01-17T01:50:52.139Z,0
2018-01-17T01:52:06.878Z,0
2018-01-17T01:52:51.698Z,0
2018-01-17T01:53:52.473Z,0
2018-01-17T01:54:51.950Z,0
2018-01-17T01:55:51.983Z,0
2018-01-17T01:56:52.252Z,0
2018-01-17T01:57:51.995Z,0
2018-01-17T01:59:52.042Z,0
2018-01-17T02:00:52.304Z,0
2018-01-17T02:02:06.994Z,0
2018-01-17T02:03:52.373Z,0
2018-01-17T02:04:52.622Z,0
2018-01-17T02:06:07.042Z,0
2018-01-17T02:06:52.660Z,0
2018-01-17T02:08:07.104Z,0
2018-01-17T02:10:52.426Z,0
2018-01-17T02:11:52.500Z,0
2018-01-17T02:13:07.142Z,0
2018-01-17T02:14:06.923Z,0
2018-01-17T02:14:52.272Z,0
2018-01-17T02:15:52.778Z,0
2018-01-17T02:16:52.290Z,0
2018-01-17T02:18:07.471Z,0
2018-01-17T02:18:52.568Z,0
2018-01-17T02:19:52.599Z,0
2018-01-17T02:21:52.358Z,0
2018-01-17T02:22:52.635Z,0
2018-01-17T02:23:52.909Z,0
2018-01-17T02:25:07.334Z,0
2018-01-17T02:26:07.097Z,0
2018-01-17T02:26:52.674Z,0
2018-01-17T02:27:52.927Z,0
2018-01-17T02:28:52.699Z,0
2018-01-17T02:29:52.997Z,0
2018-01-17T02:30:52.764Z,0
2018-01-17T02:31:53.044Z,0
2018-01-17T02:32:53.025Z,0
2018-01-17T02:34:07.714Z,0
2018-01-17T02:34:53.062Z,0
2018-01-17T02:35:52.831Z,0
2018-01-17T02:36:52.812Z,0
2018-01-17T02:37:52.876Z,0
2018-01-17T02:39:52.873Z,0
2018-01-17T02:40:52.898Z,0
2018-01-17T02:41:52.903Z,0
2018-01-17T02:42:52.919Z,0
2018-01-17T02:44:07.865Z,0
2018-01-17T02:44:52.690Z,0
2018-01-17T02:45:53.179Z,0
2018-01-17T02:46:53.194Z,0
2018-01-17T02:47:53.218Z,0
2018-01-17T02:49:07.946Z,0
2018-01-17T02:50:07.451Z,0
2018-01-17T02:50:53.033Z,0
2018-01-17T02:51:53.019Z,0
2018-01-17T02:52:53.317Z,0
2018-01-17T02:53:53.062Z,0
2018-01-17T02:54:53.083Z,0
2018-01-17T02:56:52.854Z,0
2018-01-17T02:58:22.733Z,0
2018-01-17T02:59:08.123Z,0
2018-01-17T02:59:53.248Z,0
2018-01-17T03:00:53.205Z,0
2018-01-17T03:01:53.173Z,0
2018-01-17T03:02:53.469Z,0
2018-01-17T03:04:07.907Z,0
2018-01-17T03:05:53.228Z,0
2018-01-17T03:06:53.547Z,0
2018-01-17T03:07:53.544Z,0
2018-01-17T03:08:53.545Z,0
2018-01-17T03:09:53.333Z,0
2018-01-17T03:10:53.296Z,0
2018-01-17T03:11:53.340Z,0
2018-01-17T03:12:53.060Z,0
2018-01-17T03:13:53.596Z,0
2018-01-17T03:15:08.034Z,0
2018-01-17T03:15:53.626Z,0
2018-01-17T03:16:53.134Z,0
2018-01-17T03:18:08.093Z,0
2018-01-17T03:18:53.414Z,0
2018-01-17T03:19:53.198Z,0
2018-01-17T03:21:08.121Z,0
2018-01-17T03:21:53.477Z,0
2018-01-17T03:22:53.486Z,0
2018-01-17T03:24:08.160Z,0
2018-01-17T03:24:53.244Z,0
2018-01-17T03:25:53.264Z,0
2018-01-17T03:26:53.884Z,0
2018-01-17T03:27:53.537Z,0
2018-01-17T03:28:53.416Z,0
2018-01-17T03:29:53.582Z,0
2018-01-17T03:30:53.817Z,0
2018-01-17T03:32:08.537Z,0
2018-01-17T03:32:53.585Z,0
2018-01-17T03:33:53.645Z,0
2018-01-17T03:34:53.649Z,0
2018-01-17T03:35:53.663Z,0
2018-01-17T03:37:08.094Z,0
2018-01-17T03:37:53.733Z,0
2018-01-17T03:39:53.693Z,0
2018-01-17T03:40:54.120Z,0
2018-01-17T03:41:53.745Z,0
2018-01-17T03:42:53.505Z,0
2018-01-17T03:43:53.776Z,0
2018-01-17T03:45:08.461Z,0
2018-01-17T03:45:54.051Z,0
2018-01-17T03:47:08.753Z,0
2018-01-17T03:47:53.585Z,0
2018-01-17T03:49:08.516Z,0
2018-01-17T03:49:53.340Z,0
2018-01-17T03:50:53.858Z,0
2018-01-17T03:51:53.601Z,0
2018-01-17T03:53:08.320Z,0
2018-01-17T03:54:08.830Z,0
2018-01-17T03:54:53.925Z,0
2018-01-17T03:55:53.911Z,0
2018-01-17T03:56:54.195Z,0
2018-01-17T03:57:53.959Z,0
2018-01-17T03:58:53.997Z,0
2018-01-17T04:01:08.931Z,0
2018-01-17T04:01:53.987Z,0
2018-01-17T04:02:54.301Z,0
2018-01-17T04:03:54.060Z,0
2018-01-17T04:05:54.065Z,0
2018-01-17T04:06:54.337Z,0
2018-01-17T04:07:54.331Z,0
2018-01-17T04:09:09.057Z,0
2018-01-17T04:09:54.368Z,0
2018-01-17T04:10:54.116Z,0
2018-01-17T04:11:54.176Z,0
2018-01-17T04:12:54.175Z,0
2018-01-17T04:13:54.464Z,0
2018-01-17T04:14:54.246Z,0
2018-01-17T04:15:54.200Z,0
2018-01-17T04:16:54.492Z,0
2018-01-17T04:17:54.232Z,0
2018-01-17T04:19:08.934Z,0
2018-01-17T04:20:08.947Z,0
2018-01-17T04:21:09.211Z,0
2018-01-17T04:21:54.056Z,0
2018-01-17T04:22:54.312Z,0
2018-01-17T04:24:08.738Z,0
2018-01-17T04:24:54.605Z,0
2018-01-17T04:25:54.591Z,0
2018-01-17T04:26:54.357Z,0
2018-01-17T04:27:54.383Z,0
2018-01-17T04:28:54.640Z,0
2018-01-17T04:29:54.207Z,0
2018-01-17T04:30:54.407Z,0
2018-01-17T04:31:54.183Z,0
2018-01-17T04:32:54.486Z,0
2018-01-17T04:34:09.402Z,0
2018-01-17T04:34:54.219Z,0
2018-01-17T04:35:54.498Z,0
2018-01-17T04:36:53.730Z,0
2018-01-17T04:38:09.182Z,0
2018-01-17T04:38:54.532Z,0
2018-01-17T04:40:08.968Z,0
2018-01-17T04:40:54.574Z,0
2018-01-17T04:41:54.335Z,0
2018-01-17T04:42:54.562Z,0
2018-01-17T04:44:09.517Z,0
2018-01-17T04:44:54.604Z,0
2018-01-17T04:45:54.908Z,0
2018-01-17T04:46:54.866Z,0
2018-01-17T04:47:54.683Z,0
2018-01-17T04:48:54.654Z,0
2018-01-17T04:50:09.624Z,0
2018-01-17T04:50:54.695Z,0
2018-01-17T04:51:54.696Z,0
2018-01-17T04:52:54.464Z,0
2018-01-17T04:54:54.965Z,0
2018-01-17T04:56:09.700Z,0
2018-01-17T04:56:55.001Z,0
2018-01-17T04:57:54.781Z,0
2018-01-17T04:59:08.958Z,0
2018-01-17T04:59:55.068Z,0
2018-01-17T05:01:55.103Z,0
2018-01-17T05:03:54.861Z,0
2018-01-17T05:04:54.884Z,0
2018-01-17T05:05:54.941Z,0
2018-01-17T05:06:54.890Z,0
2018-01-17T05:08:55.189Z,0
2018-01-17T05:09:55.215Z,0
2018-01-17T05:10:55.007Z,0
2018-01-17T05:12:09.647Z,0
2018-01-17T05:12:54.744Z,0
2018-01-17T05:13:55.275Z,0
2018-01-17T05:14:55.267Z,0
2018-01-17T05:15:55.062Z,0
2018-01-17T05:16:55.097Z,0
2018-01-17T05:17:55.317Z,0
2018-01-17T05:18:55.346Z,0
2018-01-17T05:19:55.099Z,0
2018-01-17T05:20:55.120Z,0
2018-01-17T05:21:55.123Z,0
2018-01-17T05:22:55.446Z,0
2018-01-17T05:23:55.398Z,0
2018-01-17T05:24:54.919Z,0
2018-01-17T05:25:54.904Z,0
2018-01-17T05:26:55.228Z,0
2018-01-17T05:28:10.085Z,0
2018-01-17T05:28:55.493Z,0
2018-01-17T05:29:55.499Z,0
2018-01-17T05:30:55.284Z,0
2018-01-17T05:32:10.209Z,0
2018-01-17T05:33:55.413Z,0
2018-01-17T05:34:55.309Z,0
2018-01-17T05:36:09.976Z,0
2018-01-17T05:36:54.821Z,0
2018-01-17T05:38:55.217Z,0
2018-01-17T05:39:55.147Z,0
2018-01-17T05:40:55.123Z,0
2018-01-17T05:41:55.165Z,0
2018-01-17T05:42:55.678Z,0
2018-01-17T05:44:10.118Z,0
2018-01-17T05:45:10.385Z,0
2018-01-17T05:45:55.456Z,0
2018-01-17T05:46:55.730Z,0
2018-01-17T05:47:55.231Z,0
2018-01-17T05:48:55.391Z,0
2018-01-17T05:49:55.759Z,0
2018-01-17T05:50:55.268Z,0
2018-01-17T05:51:55.067Z,0
2018-01-17T05:52:55.556Z,0
2018-01-17T05:53:55.828Z,0
2018-01-17T05:54:55.316Z,0
2018-01-17T05:55:55.806Z,0
2018-01-17T05:56:55.392Z,0
2018-01-17T05:57:55.911Z,0
2018-01-17T05:59:55.663Z,0
2018-01-17T06:00:55.411Z,0
2018-01-17T06:01:55.946Z,0
2018-01-17T06:02:55.571Z,0
2018-01-17T06:03:55.726Z,0
2018-01-17T06:04:56.004Z,0
2018-01-17T06:05:55.709Z,0
2018-01-17T06:06:55.498Z,0
2018-01-17T06:07:55.496Z,0
2018-01-17T06:08:55.782Z,0
2018-01-17T06:10:10.226Z,0
2018-01-17T06:10:55.563Z,0
2018-01-17T06:11:56.066Z,0
2018-01-17T06:13:10.786Z,0
2018-01-17T06:13:55.860Z,0
2018-01-17T06:14:56.128Z,0
2018-01-17T06:15:56.140Z,0
2018-01-17T06:16:56.159Z,0
2018-01-17T06:17:56.146Z,0
2018-01-17T06:18:56.262Z,0
2018-01-17T06:19:55.444Z,0
2018-01-17T06:20:56.292Z,0
2018-01-17T06:21:56.204Z,0
2018-01-17T06:22:56.214Z,0
2018-01-17T06:23:55.727Z,0
2018-01-17T06:25:10.933Z,0
2018-01-17T06:26:10.671Z,0
2018-01-17T06:27:56.290Z,0
2018-01-17T06:28:56.285Z,0
2018-01-17T06:29:55.842Z,0
2018-01-17T06:31:10.998Z,0
2018-01-17T06:32:56.104Z,0
2018-01-17T06:33:56.140Z,0
2018-01-17T06:35:10.813Z,0
2018-01-17T06:35:55.880Z,0
2018-01-17T06:37:10.598Z,0
2018-01-17T06:37:55.933Z,0
2018-01-17T06:39:10.878Z,0
2018-01-17T06:39:56.457Z,0
2018-01-17T06:40:56.257Z,0
2018-01-17T06:42:10.918Z,0
2018-01-17T06:42:56.520Z,0
2018-01-17T06:43:56.024Z,0
2018-01-17T06:44:56.030Z,0
2018-01-17T06:45:56.282Z,0
2018-01-17T06:47:11.005Z,0
2018-01-17T06:47:56.098Z,0
2018-01-17T06:48:56.579Z,0
2018-01-17T06:49:56.122Z,0
2018-01-17T06:50:56.629Z,0
2018-01-17T06:51:56.366Z,0
2018-01-17T06:52:56.375Z,0
2018-01-17T06:53:56.154Z,0
2018-01-17T06:54:56.701Z,0
2018-01-17T06:55:56.438Z,0
2018-01-17T06:56:56.694Z,0
2018-01-17T06:57:56.717Z,0
2018-01-17T06:58:56.765Z,0
2018-01-17T06:59:56.753Z,0
2018-01-17T07:00:55.978Z,0
2018-01-17T07:01:56.267Z,0
2018-01-17T07:03:11.195Z,0
2018-01-17T07:03:56.285Z,0
2018-01-17T07:05:10.973Z,0
2018-01-17T07:05:56.827Z,0
2018-01-17T07:06:56.312Z,5
2018-01-17T07:07:56.608Z,0
2018-01-17T07:08:56.361Z,0
2018-01-17T07:09:56.396Z,0
2018-01-17T07:10:56.422Z,0
2018-01-17T07:12:11.352Z,0
2018-01-17T07:13:11.339Z,5
2018-01-17T07:13:56.692Z,5
2018-01-17T07:15:56.744Z,5
2018-01-17T07:16:57.005Z,5
2018-01-17T07:17:56.742Z,5
2018-01-17T07:19:11.706Z,5
2018-01-17T07:19:56.763Z,5
2018-01-17T07:20:57.037Z,5
2018-01-17T07:22:11.708Z,10
2018-01-17T07:22:56.300Z,10
2018-01-17T07:23:57.088Z,10
2018-01-17T07:24:57.137Z,10
2018-01-17T07:26:11.552Z,10
2018-01-17T07:26:57.245Z,10
2018-01-17T07:27:57.112Z,10
2018-01-17T07:28:57.265Z,15
2018-01-17T07:29:57.175Z,15
2018-01-17T07:30:56.905Z,15
2018-01-17T07:31:56.684Z,15
2018-01-17T07:32:57.222Z,15
2018-01-17T07:34:57.003Z,20
2018-01-17T07:36:11.693Z,20
2018-01-17T07:36:57.233Z,20
2018-01-17T07:37:57.310Z,15
2018-01-17T07:38:57.303Z,15
2018-01-17T07:39:57.064Z,10
2018-01-17T07:40:57.090Z,10
2018-01-17T07:42:11.780Z,10
2018-01-17T07:42:57.104Z,10
2018-01-17T07:44:26.481Z,10
2018-01-17T07:44:57.378Z,10
2018-01-17T07:46:12.080Z,10
2018-01-17T07:47:12.121Z,10
2018-01-17T07:47:57.460Z,10
2018-01-17T07:48:57.180Z,10
2018-01-17T07:49:57.461Z,10
2018-01-17T07:50:57.481Z,10
2018-01-17T07:51:57.507Z,10
2018-01-17T07:52:57.095Z,10
2018-01-17T07:53:57.297Z,10
2018-01-17T07:54:57.310Z,10
2018-01-17T07:55:57.271Z,10
2018-01-17T07:56:57.577Z,10
2018-01-17T07:57:57.327Z,10
2018-01-17T07:58:57.332Z,10
2018-01-17T07:59:57.606Z,10
2018-01-17T08:00:57.607Z,10
2018-01-17T08:01:57.369Z,10
2018-01-17T08:03:57.424Z,10
2018-01-17T08:04:57.162Z,10
2018-01-17T08:06:12.120Z,15
2018-01-17T08:07:12.133Z,15
2018-01-17T08:08:57.745Z,15
2018-01-17T08:10:57.476Z,15
2018-01-17T08:11:57.785Z,15
2018-01-17T08:12:57.775Z,15
2018-01-17T08:13:57.848Z,15
2018-01-17T08:15:12.485Z,15
2018-01-17T08:15:57.569Z,15
2018-01-17T08:16:57.860Z,15
2018-01-17T08:17:57.599Z,15
2018-01-17T08:19:12.050Z,15
2018-01-17T08:20:57.752Z,10
2018-01-17T08:22:12.590Z,10
2018-01-17T08:23:12.641Z,10
2018-01-17T08:23:57.959Z,10
2018-01-17T08:24:57.942Z,10
2018-01-17T08:25:57.990Z,15
2018-01-17T08:26:57.986Z,15
2018-01-17T08:27:57.756Z,15
2018-01-17T08:28:57.487Z,15
2018-01-17T08:29:58.028Z,15
2018-01-17T08:30:57.797Z,15
2018-01-17T08:31:57.825Z,15
2018-01-17T08:32:57.839Z,15
2018-01-17T08:33:57.831Z,15
2018-01-17T08:34:57.863Z,15
2018-01-17T08:35:57.918Z,15
2018-01-17T08:36:58.169Z,15
2018-01-17T08:38:12.564Z,10
2018-01-17T08:38:57.905Z,10
2018-01-17T08:39:57.925Z,5
2018-01-17T08:41:12.902Z,5
2018-01-17T08:41:57.966Z,5
2018-01-17T08:42:57.959Z,0
2018-01-17T08:44:12.885Z,5
2018-01-17T08:44:57.998Z,5
2018-01-17T08:45:57.742Z,5
2018-01-17T08:46:58.002Z,5
2018-01-17T08:47:58.043Z,5
2018-01-17T08:48:58.037Z,5
2018-01-17T08:49:58.395Z,5
2018-01-17T08:50:58.331Z,10
2018-01-17T08:51:58.360Z,15
2018-01-17T08:52:57.874Z,15
2018-01-17T08:54:12.562Z,20
2018-01-17T08:54:58.411Z,20
2018-01-17T08:55:58.168Z,20
2018-01-17T08:56:58.458Z,20
2018-01-17T08:58:58.473Z,15
2018-01-17T08:59:58.506Z,15
2018-01-17T09:01:12.704Z,15
2018-01-17T09:01:58.535Z,10
2018-01-17T09:02:58.505Z,10
2018-01-17T09:03:58.290Z,10
2018-01-17T09:04:58.315Z,10
2018-01-17T09:05:58.644Z,10
2018-01-17T09:06:58.323Z,10
2018-01-17T09:07:58.380Z,10
2018-01-17T09:09:27.680Z,15
2018-01-17T09:10:13.024Z,15
2018-01-17T09:10:58.655Z,15
2018-01-17T09:11:58.391Z,20
2018-01-17T09:12:57.982Z,20
2018-01-17T09:13:58.390Z,25
2018-01-17T09:14:58.440Z,25
2018-01-17T09:15:58.709Z,25
2018-01-17T09:16:58.753Z,20
2018-01-17T09:18:12.887Z,20
2018-01-17T09:18:57.977Z,20
2018-01-17T09:19:58.241Z,25
2018-01-17T09:20:58.247Z,25
2018-01-17T09:21:58.806Z,25
2018-01-17T09:22:58.824Z,25
2018-01-17T09:23:58.277Z,25
2018-01-17T09:24:58.603Z,25
2018-01-17T09:25:58.335Z,20
2018-01-17T09:27:13.250Z,20
2018-01-17T09:28:58.625Z,20
2018-01-17T09:29:58.883Z,20
2018-01-17T09:31:27.993Z,20
2018-01-17T09:31:58.412Z,20
2018-01-17T09:32:58.681Z,20
2018-01-17T09:34:13.348Z,20
2018-01-17T09:34:58.713Z,20
2018-01-17T09:35:58.978Z,15
2018-01-17T09:36:58.730Z,15
2018-01-17T09:37:59.039Z,15
2018-01-17T09:38:58.748Z,15
2018-01-17T09:39:59.044Z,15
2018-01-17T09:41:13.492Z,15
2018-01-17T09:41:58.816Z,15
2018-01-17T09:42:59.054Z,15
2018-01-17T09:43:58.813Z,15
2018-01-17T09:45:13.517Z,15
2018-01-17T09:45:58.901Z,15
2018-01-17T09:46:59.147Z,15
2018-01-17T09:47:59.137Z,15
2018-01-17T09:48:59.148Z,15
2018-01-17T09:50:13.864Z,15
2018-01-17T09:51:13.866Z,15
2018-01-17T09:51:58.945Z,15
2018-01-17T09:52:59.221Z,15
2018-01-17T09:53:59.018Z,15
2018-01-17T09:54:59.228Z,15
2018-01-17T09:57:58.809Z,15
2018-01-17T09:58:59.350Z,15
2018-01-17T09:59:59.310Z,15
2018-01-17T10:00:59.349Z,20
2018-01-17T10:01:59.371Z,20
2018-01-17T10:02:59.080Z,15
2018-01-17T10:04:58.888Z,20
2018-01-17T10:06:13.581Z,20
2018-01-17T10:06:59.389Z,15
2018-01-17T10:07:58.926Z,15
2018-01-17T10:08:59.180Z,15
2018-01-17T10:09:59.238Z,15
2018-01-17T10:11:14.156Z,15
2018-01-17T10:11:59.523Z,15
2018-01-17T10:13:13.674Z,15
2018-01-17T10:13:59.535Z,15
2018-01-17T10:14:59.020Z,15
2018-01-17T10:16:59.289Z,15
2018-01-17T10:17:59.565Z,20
2018-01-17T10:18:59.707Z,20
2018-01-17T10:19:59.658Z,25
2018-01-17T10:21:59.603Z,25
2018-01-17T10:23:14.343Z,25
2018-01-17T10:23:59.239Z,25
2018-01-17T10:25:14.160Z,25
2018-01-17T10:25:59.729Z,25
2018-01-17T10:26:59.503Z,25
2018-01-17T10:27:59.745Z,35
2018-01-17T10:29:14.394Z,50
2018-01-17T10:29:59.768Z,50
2018-01-17T10:31:14.537Z,55
2018-01-17T10:31:59.569Z,55
2018-01-17T10:33:14.493Z,60
2018-01-17T10:34:14.461Z,65
2018-01-17T10:35:14.000Z,65
2018-01-17T10:35:59.821Z,60
2018-01-17T10:36:59.859Z,60
2018-01-17T10:37:59.713Z,55
2018-01-17T10:39:14.540Z,50
2018-01-17T10:39:59.662Z,50
2018-01-17T10:40:59.661Z,50
2018-01-17T10:41:59.761Z,45
2018-01-17T10:42:59.807Z,35
2018-01-17T10:44:14.629Z,35
2018-01-17T10:44:59.720Z,35
2018-01-17T10:46:14.645Z,40
2018-01-17T10:46:59.979Z,40
2018-01-17T10:47:59.495Z,45
2018-01-17T10:49:00.011Z,45
2018-01-17T10:50:00.053Z,45
2018-01-17T10:51:14.759Z,45
2018-01-17T10:52:00.070Z,40
2018-01-17T10:53:00.192Z,30
2018-01-17T10:53:59.938Z,30
2018-01-17T10:55:14.782Z,25
2018-01-17T10:56:14.539Z,20
2018-01-17T10:57:14.325Z,20
2018-01-17T10:57:59.647Z,20
2018-01-17T10:59:14.616Z,20
2018-01-17T11:00:00.194Z,25
2018-01-17T11:00:59.719Z,25
2018-01-17T11:01:59.456Z,20
2018-01-17T11:03:00.238Z,20
2018-01-17T11:04:00.246Z,25
2018-01-17T11:05:00.258Z,40
2018-01-17T11:06:00.284Z,50
2018-01-17T11:07:14.974Z,55
2018-01-17T11:08:00.042Z,55
2018-01-17T11:08:59.806Z,50
2018-01-17T11:10:00.139Z,50
2018-01-17T11:11:00.092Z,50
2018-01-17T11:12:14.773Z,45
2018-01-17T11:13:00.363Z,45
2018-01-17T11:14:00.130Z,45
2018-01-17T11:15:00.403Z,45
2018-01-17T11:16:15.067Z,45
2018-01-17T11:17:00.187Z,40
2018-01-17T11:18:00.306Z,40
2018-01-17T11:19:00.430Z,40
2018-01-17T11:20:00.221Z,40
2018-01-17T11:21:00.455Z,35
2018-01-17T11:22:00.247Z,35
2018-01-17T11:23:00.293Z,40
2018-01-17T11:24:00.379Z,45
2018-01-17T11:25:00.577Z,60
2018-01-17T11:26:00.308Z,75
2018-01-17T11:27:00.553Z,85
2018-01-17T11:28:00.106Z,90
2018-01-17T11:29:00.596Z,95
2018-01-17T11:30:00.366Z,105
2018-01-17T11:32:15.353Z,85
2018-01-17T11:33:00.684Z,80
2018-01-17T11:34:00.444Z,75
2018-01-17T11:35:00.455Z,65
2018-01-17T11:36:00.453Z,55
2018-01-17T11:37:00.219Z,45
2018-01-17T11:38:00.501Z,45
2018-01-17T11:39:00.501Z,40
2018-01-17T11:40:00.792Z,30
2018-01-17T11:41:00.543Z,30
2018-01-17T11:42:15.245Z,30
2018-01-17T11:43:00.566Z,30
2018-01-17T11:44:15.503Z,20
2018-01-17T11:45:00.332Z,20
2018-01-17T11:46:00.840Z,20
2018-01-17T11:47:00.870Z,20
2018-01-17T11:48:15.572Z,15
2018-01-17T11:49:00.883Z,15
2018-01-17T11:51:00.936Z,15
2018-01-17T11:52:00.459Z,15
2018-01-17T11:53:00.738Z,20
2018-01-17T11:54:00.745Z,25
2018-01-17T11:55:01.035Z,20
2018-01-17T11:56:01.066Z,20
2018-01-17T11:57:00.804Z,20
2018-01-17T11:58:01.031Z,15
2018-01-17T12:00:01.063Z,15
2018-01-17T12:01:01.140Z,15
2018-01-17T12:02:15.535Z,15
2018-01-17T12:03:00.886Z,15
2018-01-17T12:04:15.808Z,15
2018-01-17T12:05:00.888Z,15
2018-01-17T12:06:15.819Z,15
2018-01-17T12:07:01.173Z,20
2018-01-17T12:08:00.945Z,20
2018-01-17T12:09:00.995Z,20
2018-01-17T12:10:00.946Z,20
2018-01-17T12:11:00.976Z,20
2018-01-17T12:12:01.217Z,20
2018-01-17T12:13:01.274Z,15
2018-01-17T12:14:01.270Z,15
2018-01-17T12:15:01.365Z,10
2018-01-17T12:16:15.998Z,15
2018-01-17T12:18:00.867Z,15
2018-01-17T12:19:15.527Z,15
2018-01-17T12:20:01.365Z,20
2018-01-17T12:21:01.395Z,20
2018-01-17T12:22:01.135Z,20
2018-01-17T12:23:01.455Z,20
2018-01-17T12:24:01.437Z,20
2018-01-17T12:25:16.131Z,20
2018-01-17T12:26:16.128Z,25
2018-01-17T12:27:15.657Z,25
2018-01-17T12:28:01.496Z,25
2018-01-17T12:29:15.699Z,25
2018-01-17T12:30:01.527Z,20
2018-01-17T12:31:01.021Z,25
2018-01-17T12:32:15.973Z,30
2018-01-17T12:33:01.553Z,30
2018-01-17T12:34:01.330Z,30
2018-01-17T12:35:01.561Z,30
2018-01-17T12:37:01.350Z,25
2018-01-17T12:38:16.040Z,20
2018-01-17T12:39:01.661Z,20
2018-01-17T12:40:01.627Z,20
2018-01-17T12:41:01.722Z,20
2018-01-17T12:42:01.699Z,15
2018-01-17T12:43:16.402Z,15
2018-01-17T12:44:01.563Z,10
2018-01-17T12:45:16.411Z,10
2018-01-17T12:46:01.739Z,10
2018-01-17T12:47:01.550Z,10
2018-01-17T12:48:16.452Z,5
2018-01-17T12:49:01.833Z,5
2018-01-17T12:50:01.551Z,5
2018-01-17T12:51:16.241Z,10
2018-01-17T12:52:01.312Z,10
2018-01-17T12:53:01.845Z,10
2018-01-17T12:55:01.919Z,10
2018-01-17T12:56:16.308Z,10
2018-01-17T12:57:16.624Z,10
2018-01-17T12:58:01.902Z,10
2018-01-17T12:59:01.193Z,10
2018-01-17T13:00:01.685Z,10
2018-01-17T13:01:01.982Z,10
2018-01-17T13:02:01.735Z,5
2018-01-17T13:03:01.740Z,5
2018-01-17T13:04:01.781Z,5
2018-01-17T13:05:01.897Z,10
2018-01-17T13:06:16.825Z,10
2018-01-17T13:08:01.826Z,10
2018-01-17T13:10:02.085Z,10
2018-01-17T13:11:02.092Z,10
2018-01-17T13:12:01.610Z,10
2018-01-17T13:13:01.875Z,10
2018-01-17T13:14:02.146Z,10
2018-01-17T13:15:01.891Z,10
2018-01-17T13:16:16.874Z,10
2018-01-17T13:17:01.956Z,10
2018-01-17T13:18:02.199Z,10
2018-01-17T13:19:02.269Z,10
2018-01-17T13:20:02.288Z,10
2018-01-17T13:21:02.327Z,10
2018-01-17T13:22:02.065Z,10
2018-01-17T13:24:02.082Z,10
2018-01-17T13:25:02.306Z,10
2018-01-17T13:26:02.326Z,5
2018-01-17T13:27:02.115Z,5
2018-01-17T13:28:02.090Z,5
2018-01-17T13:29:02.188Z,5
2018-01-17T13:30:02.156Z,5
2018-01-17T13:31:02.162Z,5
2018-01-17T13:32:16.840Z,5
2018-01-17T13:33:02.425Z,5
2018-01-17T13:34:17.115Z,5
2018-01-17T13:35:31.571Z,5
2018-01-17T13:36:02.476Z,10
2018-01-17T13:37:02.592Z,5
2018-01-17T13:38:01.985Z,5
2018-01-17T13:39:17.191Z,5
2018-01-17T13:40:17.217Z,10
2018-01-17T13:41:02.521Z,10
2018-01-17T13:42:02.557Z,10
2018-01-17T13:43:17.235Z,10
2018-01-17T13:44:02.306Z,5
2018-01-17T13:45:02.323Z,10
2018-01-17T13:46:02.340Z,10
2018-01-17T13:47:02.660Z,10
2018-01-17T13:48:02.659Z,10
2018-01-17T13:49:02.374Z,10
2018-01-17T13:50:17.396Z,10
2018-01-17T13:51:02.445Z,10
2018-01-17T13:52:02.661Z,15
2018-01-17T13:53:17.381Z,15
2018-01-17T13:54:17.394Z,10
2018-01-17T13:55:02.251Z,10
2018-01-17T13:56:02.751Z,10
2018-01-17T13:57:02.753Z,15
2018-01-17T13:58:17.208Z,15
2018-01-17T13:59:02.834Z,10
2018-01-17T14:00:02.801Z,10
2018-01-17T14:02:02.811Z,10
2018-01-17T14:03:17.257Z,10
2018-01-17T14:04:02.850Z,10
2018-01-17T14:05:02.605Z,10
2018-01-17T14:06:17.583Z,10
2018-01-17T14:07:17.592Z,10
2018-01-17T14:08:02.947Z,10
2018-01-17T14:10:02.933Z,10
2018-01-17T14:11:02.957Z,10
2018-01-17T14:12:17.647Z,10
2018-01-17T14:13:17.434Z,10
2018-01-17T14:14:03.010Z,10
2018-01-17T14:15:03.014Z,10
2018-01-17T14:16:17.443Z,10
2018-01-17T14:17:03.024Z,15
2018-01-17T14:18:02.574Z,15
2018-01-17T14:19:17.760Z,15
2018-01-17T14:20:03.087Z,15
2018-01-17T14:21:17.773Z,20
2018-01-17T14:22:02.854Z,15
2018-01-17T14:23:03.130Z,15
2018-01-17T14:24:17.906Z,15
2018-01-17T14:25:03.152Z,15
2018-01-17T14:26:17.848Z,20
2018-01-17T14:27:03.211Z,15
2018-01-17T14:28:03.293Z,15
2018-01-17T14:29:02.710Z,15
2018-01-17T14:30:02.994Z,15
2018-01-17T14:31:02.991Z,10
2018-01-17T14:32:02.753Z,10
2018-01-17T14:33:17.720Z,15
2018-01-17T14:34:03.152Z,15
2018-01-17T14:35:03.053Z,15
2018-01-17T14:36:02.790Z,15
2018-01-17T14:37:18.027Z,15
2018-01-17T14:38:03.348Z,15
2018-01-17T14:39:03.385Z,15
2018-01-17T14:40:17.803Z,15
2018-01-17T14:41:03.398Z,15
2018-01-17T14:42:32.772Z,15
2018-01-17T14:43:03.211Z,15
2018-01-17T14:44:03.180Z,10
2018-01-17T14:45:03.225Z,10
2018-01-17T14:46:03.195Z,10
2018-01-17T14:47:03.465Z,10
2018-01-17T14:48:18.159Z,10
2018-01-17T14:49:03.491Z,10
2018-01-17T14:50:03.254Z,10
2018-01-17T14:52:03.571Z,10
2018-01-17T14:53:18.236Z,10
2018-01-17T14:54:03.564Z,10
2018-01-17T14:55:18.257Z,10
2018-01-17T14:56:03.347Z,10
2018-01-17T14:57:03.399Z,10
2018-01-17T14:58:18.292Z,10
2018-01-17T14:59:03.631Z,10
2018-01-17T15:00:03.148Z,10
2018-01-17T15:01:03.660Z,10
2018-01-17T15:02:03.431Z,10
2018-01-17T15:03:03.695Z,10
2018-01-17T15:04:03.471Z,10
2018-01-17T15:06:03.739Z,10
2018-01-17T15:07:03.773Z,5
2018-01-17T15:08:03.769Z,5
2018-01-17T15:09:03.824Z,5
2018-01-17T15:10:03.571Z,5
2018-01-17T15:11:18.463Z,5
2018-01-17T15:12:03.815Z,5
2018-01-17T15:13:03.577Z,0
2018-01-17T15:14:18.264Z,0
2018-01-17T15:15:03.860Z,0
2018-01-17T15:16:03.622Z,0
2018-01-17T15:17:03.616Z,0
2018-01-17T15:18:03.684Z,0
2018-01-17T15:19:03.940Z,0
2018-01-17T15:21:03.749Z,0
2018-01-17T15:22:03.948Z,0
2018-01-17T15:23:18.143Z,0
2018-01-17T15:25:03.773Z,0
2018-01-17T15:26:04.014Z,0
2018-01-17T15:27:18.688Z,0
2018-01-17T15:28:03.788Z,0